Time;durP1;ratioP1;P1;durP2;ratioP2;P2;SDS_P1;SDS_P2;PMS_P1;PMS_P2;Temp;Humidity;BMP_temperature;BMP_pressure;BME280_temperature;BME280_humidity;BME280_pressure;Samples;Min_cycle;Max_cycle;Signal;HPM_P1;HPM_P2
2022/05/23 00:01:50;;;;;;;2.10;1.87;;;;;;;;;;4953496;28;20211;-72
2022/05/23 00:04:16;;;;;;;2.87;2.37;;;;;;;;;;4972820;28;20194;-71
2022/05/23 00:06:42;;;;;;;2.37;2.17;;;;;;;;;;4973748;28;20182;-73
2022/05/23 00:09:08;;;;;;;2.77;2.10;;;;;;;;;;4979176;28;20191;-72
2022/05/23 00:11:33;;;;;;;2.10;1.90;;;;;;;;;;4964456;28;20218;-72
2022/05/23 00:13:58;;;;;;;3.13;2.00;;;;;;;;;;4974107;28;20284;-72
2022/05/23 00:16:25;;;;;;;2.07;1.87;;;;;;;;;;4964139;28;20271;-72
2022/05/23 00:18:51;;;;;;;3.40;2.30;;;;;;;;;;4961414;28;20187;-71
2022/05/23 00:21:16;;;;;;;3.47;2.10;;;;;;;;;;4962813;28;20192;-72
2022/05/23 00:23:42;;;;;;;4.03;2.00;;;;;;;;;;4969434;28;20184;-72
2022/05/23 00:26:10;;;;;;;1.83;1.73;;;;;;;;;;4965166;28;20235;-72
2022/05/23 00:28:36;;;;;;;2.43;2.23;;;;;;;;;;4960880;28;20186;-72
2022/05/23 00:31:01;;;;;;;2.63;2.43;;;;;;;;;;4963077;28;20229;-72
2022/05/23 00:36:11;;;;;;;2.10;1.90;;;;;;;;;;4963041;28;20209;-72
2022/05/23 00:38:36;;;;;;;1.83;1.73;;;;;;;;;;4964536;28;20179;-72
2022/05/23 00:44:05;;;;;;;2.53;1.93;;;;;;;;;;4961630;28;20209;-72
2022/05/23 00:46:30;;;;;;;3.40;2.20;;;;;;;;;;4970403;28;20247;-72
2022/05/23 00:49:01;;;;;;;3.20;2.03;;;;;;;;;;4958411;28;20190;-72
2022/05/23 00:51:27;;;;;;;2.13;2.00;;;;;;;;;;4959669;28;20233;-72
2022/05/23 00:53:54;;;;;;;1.80;1.70;;;;;;;;;;4975349;28;20174;-72
2022/05/23 00:56:22;;;;;;;2.00;1.90;;;;;;;;;;4967223;28;20187;-71
2022/05/23 00:58:53;;;;;;;2.17;1.97;;;;;;;;;;4974935;28;20282;-72
2022/05/23 01:01:20;;;;;;;2.27;2.07;;;;;;;;;;4975270;28;20196;-72
2022/05/23 01:03:45;;;;;;;2.83;2.00;;;;;;;;;;4960765;28;20206;-71
2022/05/23 01:06:11;;;;;;;3.30;1.87;;;;;;;;;;4958965;28;20457;-72
2022/05/23 01:08:36;;;;;;;2.80;2.00;;;;;;;;;;4962947;28;20209;-72
2022/05/23 01:11:03;;;;;;;3.83;2.00;;;;;;;;;;4969866;28;20210;-71
2022/05/23 01:13:28;;;;;;;2.47;2.27;;;;;;;;;;4963078;28;20208;-72
2022/05/23 01:15:53;;;;;;;2.30;2.03;;;;;;;;;;4953732;28;20217;-72
2022/05/23 01:18:19;;;;;;;2.50;1.83;;;;;;;;;;4968763;28;20265;-72
2022/05/23 01:20:45;;;;;;;1.53;1.43;;;;;;;;;;4965171;28;20214;-72
2022/05/23 01:23:26;;;;;;;3.30;1.90;;;;;;;;;;4973470;28;20269;-71
2022/05/23 01:25:51;;;;;;;3.30;1.73;;;;;;;;;;4957276;28;20181;-71
2022/05/23 01:28:16;;;;;;;4.40;2.00;;;;;;;;;;4966609;28;20235;-72
2022/05/23 01:30:42;;;;;;;2.13;1.80;;;;;;;;;;4975064;28;20213;-72
2022/05/23 01:33:08;;;;;;;2.20;1.77;;;;;;;;;;4959013;28;20171;-72
2022/05/23 01:35:34;;;;;;;1.93;1.83;;;;;;;;;;4958889;28;20181;-71
2022/05/23 01:37:59;;;;;;;2.60;2.20;;;;;;;;;;4956971;28;20171;-72
2022/05/23 01:40:24;;;;;;;2.40;2.20;;;;;;;;;;4979341;28;20201;-72
2022/05/23 01:42:49;;;;;;;2.77;2.07;;;;;;;;;;4975513;28;20195;-72
2022/05/23 01:45:16;;;;;;;2.37;1.80;;;;;;;;;;4972729;28;20249;-72
2022/05/23 01:47:41;;;;;;;2.30;2.10;;;;;;;;;;4963957;28;20329;-71
2022/05/23 01:50:07;;;;;;;3.33;1.90;;;;;;;;;;4965936;28;20288;-73
2022/05/23 01:52:32;;;;;;;3.23;1.87;;;;;;;;;;4969243;28;20195;-72
2022/05/23 01:54:58;;;;;;;6.77;2.07;;;;;;;;;;4972499;28;20178;-72
2022/05/23 01:57:23;;;;;;;1.90;1.80;;;;;;;;;;4964900;28;20183;-72
2022/05/23 02:02:34;;;;;;;2.90;2.00;;;;;;;;;;4962080;28;20209;-71
2022/05/23 02:05:00;;;;;;;2.10;1.90;;;;;;;;;;4964178;28;20369;-72
2022/05/23 02:07:25;;;;;;;2.90;2.10;;;;;;;;;;4964431;28;20300;-71
2022/05/23 02:09:50;;;;;;;1.97;1.80;;;;;;;;;;4963297;28;20217;-72
2022/05/23 02:12:18;;;;;;;2.33;1.90;;;;;;;;;;4958890;28;20181;-71
2022/05/23 02:14:44;;;;;;;1.93;1.80;;;;;;;;;;4966683;28;20184;-73
2022/05/23 02:17:10;;;;;;;3.93;2.00;;;;;;;;;;4966689;28;20232;-72
2022/05/23 02:19:36;;;;;;;2.53;2.00;;;;;;;;;;4959237;28;20190;-73
2022/05/23 02:22:01;;;;;;;2.20;1.87;;;;;;;;;;4963250;28;20218;-72
2022/05/23 02:24:26;;;;;;;2.03;1.70;;;;;;;;;;4960347;28;20265;-72
2022/05/23 02:26:52;;;;;;;1.80;1.70;;;;;;;;;;4975727;28;20182;-72
2022/05/23 02:29:18;;;;;;;2.20;1.80;;;;;;;;;;4981052;28;20185;-71
2022/05/23 02:31:43;;;;;;;2.43;1.87;;;;;;;;;;4964961;28;20213;-72
2022/05/23 02:34:10;;;;;;;3.13;1.83;;;;;;;;;;4965069;28;20192;-72
2022/05/23 02:36:35;;;;;;;1.73;1.60;;;;;;;;;;4963549;28;20186;-71
2022/05/23 02:39:00;;;;;;;2.30;2.10;;;;;;;;;;4967804;28;20178;-72
2022/05/23 02:41:25;;;;;;;1.93;1.80;;;;;;;;;;4962919;28;20195;-72
2022/05/23 02:43:51;;;;;;;1.87;1.70;;;;;;;;;;4966828;28;20186;-72
2022/05/23 02:46:16;;;;;;;2.00;1.80;;;;;;;;;;4983247;28;20265;-72
2022/05/23 02:48:41;;;;;;;2.33;1.80;;;;;;;;;;4979624;28;20178;-72
2022/05/23 02:51:06;;;;;;;1.63;1.50;;;;;;;;;;4965063;28;20210;-72
2022/05/23 02:53:32;;;;;;;2.30;1.80;;;;;;;;;;4975419;28;20640;-72
2022/05/23 02:55:57;;;;;;;2.73;1.90;;;;;;;;;;4975745;28;20229;-72
2022/05/23 02:58:22;;;;;;;2.97;1.90;;;;;;;;;;4980132;28;20182;-71
2022/05/23 03:00:48;;;;;;;2.20;2.00;;;;;;;;;;4970851;28;20294;-72
2022/05/23 03:03:13;;;;;;;2.23;2.03;;;;;;;;;;4970262;28;20181;-72
2022/05/23 03:05:40;;;;;;;1.93;1.80;;;;;;;;;;4962544;28;20234;-72
2022/05/23 03:08:05;;;;;;;2.37;1.90;;;;;;;;;;4961979;28;20197;-72
2022/05/23 03:10:31;;;;;;;1.70;1.60;;;;;;;;;;4960713;28;20228;-72
2022/05/23 03:12:56;;;;;;;2.10;2.00;;;;;;;;;;4962791;28;20189;-72
2022/05/23 03:15:21;;;;;;;4.03;2.20;;;;;;;;;;4973005;28;20214;-72
2022/05/23 03:17:47;;;;;;;3.20;1.80;;;;;;;;;;4960832;28;20182;-72
2022/05/23 03:20:13;;;;;;;2.03;1.73;;;;;;;;;;4973871;28;20190;-72
2022/05/23 03:28:06;;;;;;;2.20;2.00;;;;;;;;;;4963962;28;20197;-72
2022/05/23 03:30:32;;;;;;;2.00;1.80;;;;;;;;;;4965573;28;20202;-71
2022/05/23 03:32:57;;;;;;;1.70;1.60;;;;;;;;;;4967213;28;20200;-71
2022/05/23 03:35:23;;;;;;;2.50;2.27;;;;;;;;;;4980165;28;20178;-72
2022/05/23 03:37:48;;;;;;;2.30;2.10;;;;;;;;;;4961861;28;20173;-72
2022/05/23 03:40:13;;;;;;;3.20;1.70;;;;;;;;;;4981666;28;20193;-72
2022/05/23 03:42:39;;;;;;;4.87;1.87;;;;;;;;;;4961488;28;20223;-72
2022/05/23 03:45:06;;;;;;;2.37;2.03;;;;;;;;;;4962773;28;20181;-72
2022/05/23 03:47:31;;;;;;;2.10;1.73;;;;;;;;;;4963790;28;20184;-71
2022/05/23 03:49:56;;;;;;;1.77;1.67;;;;;;;;;;4971877;28;20206;-71
2022/05/23 03:52:21;;;;;;;3.80;1.83;;;;;;;;;;4959523;28;20264;-71
2022/05/23 03:54:46;;;;;;;3.33;1.70;;;;;;;;;;4957208;28;20202;-72
2022/05/23 03:57:12;;;;;;;3.43;2.00;;;;;;;;;;4965979;28;20178;-74
2022/05/23 03:59:37;;;;;;;2.47;1.80;;;;;;;;;;4963993;28;20211;-71
2022/05/23 04:02:02;;;;;;;2.20;1.93;;;;;;;;;;4952853;28;20195;-71
2022/05/23 04:04:28;;;;;;;2.07;1.80;;;;;;;;;;4965109;28;20223;-71
2022/05/23 04:07:00;;;;;;;2.70;1.93;;;;;;;;;;4966715;28;20188;-71
2022/05/23 04:09:27;;;;;;;2.97;2.20;;;;;;;;;;4971829;28;20185;-72
2022/05/23 04:11:52;;;;;;;3.73;2.10;;;;;;;;;;4959852;28;20221;-73
2022/05/23 04:14:17;;;;;;;3.40;2.33;;;;;;;;;;4979996;28;20264;-73
2022/05/23 04:16:46;;;;;;;4.33;3.63;;;;;;;;;;4961362;28;20184;-74
2022/05/23 04:19:12;;;;;;;3.13;2.67;;;;;;;;;;4963229;28;20224;-74
2022/05/23 04:21:41;;;;;;;2.67;2.30;;;;;;;;;;4980116;28;20179;-73
2022/05/23 04:24:07;;;;;;;4.27;2.50;;;;;;;;;;4977679;28;20189;-74
2022/05/23 04:26:32;;;;;;;2.37;2.10;;;;;;;;;;4960162;28;20245;-74
2022/05/23 04:28:57;;;;;;;4.87;2.67;;;;;;;;;;4961997;28;20272;-74
2022/05/23 04:31:22;;;;;;;2.90;2.60;;;;;;;;;;4960717;28;20201;-74
2022/05/23 04:36:31;;;;;;;2.40;2.20;;;;;;;;;;4952169;28;20212;-74
2022/05/23 04:38:57;;;;;;;3.33;2.50;;;;;;;;;;4983635;28;20180;-74
2022/05/23 04:41:23;;;;;;;3.03;2.40;;;;;;;;;;4974947;28;20185;-74
2022/05/23 04:43:48;;;;;;;3.43;2.60;;;;;;;;;;4967557;28;20173;-74
2022/05/23 04:46:15;;;;;;;4.87;3.00;;;;;;;;;;4973231;28;20175;-74
2022/05/23 04:51:24;;;;;;;4.30;2.60;;;;;;;;;;4963552;28;20203;-74
2022/05/23 04:53:53;;;;;;;2.90;2.70;;;;;;;;;;4959088;28;20181;-74
2022/05/23 04:56:19;;;;;;;3.30;3.00;;;;;;;;;;4974648;28;20266;-74
2022/05/23 04:58:44;;;;;;;4.13;3.30;;;;;;;;;;4963334;28;20275;-74
2022/05/23 05:01:09;;;;;;;4.20;2.63;;;;;;;;;;4972093;28;20203;-74
2022/05/23 05:03:34;;;;;;;4.50;2.43;;;;;;;;;;4964008;28;20186;-74
2022/05/23 05:05:59;;;;;;;2.80;2.53;;;;;;;;;;4963189;28;20238;-73
2022/05/23 05:08:25;;;;;;;3.17;2.60;;;;;;;;;;4966951;28;20181;-73
2022/05/23 05:10:50;;;;;;;4.73;2.70;;;;;;;;;;4963346;28;20221;-74
2022/05/23 05:13:15;;;;;;;2.70;2.50;;;;;;;;;;4965517;28;20194;-74
2022/05/23 05:15:40;;;;;;;3.63;2.90;;;;;;;;;;4957815;28;20269;-74
2022/05/23 05:18:06;;;;;;;3.67;2.60;;;;;;;;;;4976845;28;20182;-74
2022/05/23 05:20:31;;;;;;;2.57;2.37;;;;;;;;;;4974106;28;20186;-73
2022/05/23 05:22:56;;;;;;;4.73;2.70;;;;;;;;;;4968080;28;20219;-73
2022/05/23 05:25:21;;;;;;;4.77;2.93;;;;;;;;;;4977681;28;20182;-74
2022/05/23 05:27:47;;;;;;;3.10;2.80;;;;;;;;;;4970046;28;20178;-73
2022/05/23 05:30:19;;;;;;;3.33;2.90;;;;;;;;;;4967184;28;20214;-74
2022/05/23 05:32:47;;;;;;;2.63;2.43;;;;;;;;;;4979204;28;20179;-73
2022/05/23 05:35:12;;;;;;;4.67;2.30;;;;;;;;;;4981578;28;20189;-74
2022/05/23 05:37:44;;;;;;;4.07;2.33;;;;;;;;;;4966300;28;20178;-73
2022/05/23 05:40:10;;;;;;;2.80;2.60;;;;;;;;;;4985204;28;20191;-73
2022/05/23 05:42:40;;;;;;;4.13;2.70;;;;;;;;;;4977200;28;20212;-73
2022/05/23 05:45:08;;;;;;;2.63;2.43;;;;;;;;;;4966185;28;20190;-74
2022/05/23 05:47:34;;;;;;;2.97;2.67;;;;;;;;;;4966222;28;20212;-73
2022/05/23 05:50:01;;;;;;;4.10;3.03;;;;;;;;;;4961167;28;20253;-74
2022/05/23 05:52:28;;;;;;;4.17;2.67;;;;;;;;;;4958851;28;20475;-73
2022/05/23 05:54:54;;;;;;;3.50;3.03;;;;;;;;;;4988360;28;20186;-73
2022/05/23 05:57:19;;;;;;;4.47;3.53;;;;;;;;;;4982050;28;20185;-73
2022/05/23 05:59:45;;;;;;;3.30;2.97;;;;;;;;;;4968785;28;20226;-74
2022/05/23 06:02:10;;;;;;;3.53;3.23;;;;;;;;;;4963474;28;20199;-73
2022/05/23 06:04:35;;;;;;;6.30;4.57;;;;;;;;;;4966559;28;20826;-73
2022/05/23 06:12:29;;;;;;;3.20;2.90;;;;;;;;;;4965697;28;20183;-73
2022/05/23 06:14:54;;;;;;;3.67;3.20;;;;;;;;;;4967347;28;20186;-73
2022/05/23 06:17:19;;;;;;;3.63;3.23;;;;;;;;;;4966276;28;20273;-73
2022/05/23 06:19:46;;;;;;;4.90;3.37;;;;;;;;;;4978136;28;20218;-72
2022/05/23 06:22:12;;;;;;;3.57;2.90;;;;;;;;;;4961227;28;20183;-73
2022/05/23 06:24:37;;;;;;;4.93;3.53;;;;;;;;;;4963155;28;20189;-72
2022/05/23 06:27:03;;;;;;;3.27;2.97;;;;;;;;;;4966009;28;20188;-73
2022/05/23 06:29:28;;;;;;;3.90;3.37;;;;;;;;;;4979099;28;20185;-73
2022/05/23 06:31:54;;;;;;;3.83;3.43;;;;;;;;;;4976334;28;20210;-72
2022/05/23 06:34:19;;;;;;;3.83;3.20;;;;;;;;;;4968173;28;20265;-72
2022/05/23 06:36:45;;;;;;;3.97;3.10;;;;;;;;;;4983753;28;20220;-72
2022/05/23 06:39:10;;;;;;;3.30;2.93;;;;;;;;;;4971480;28;20197;-72
2022/05/23 06:41:36;;;;;;;3.53;3.23;;;;;;;;;;4982344;28;20189;-73
2022/05/23 06:44:01;;;;;;;3.83;3.40;;;;;;;;;;4965484;28;20244;-72
2022/05/23 06:46:26;;;;;;;6.73;3.00;;;;;;;;;;4994333;28;20186;-73
2022/05/23 06:48:51;;;;;;;7.03;3.30;;;;;;;;;;4980499;28;20183;-73
2022/05/23 06:51:17;;;;;;;3.80;3.20;;;;;;;;;;4961224;28;20209;-72
2022/05/23 06:53:42;;;;;;;3.60;3.30;;;;;;;;;;4973422;28;20339;-73
2022/05/23 06:56:07;;;;;;;4.13;3.13;;;;;;;;;;4970771;28;20170;-72
2022/05/23 06:58:32;;;;;;;4.77;3.50;;;;;;;;;;4967020;28;20186;-72
2022/05/23 07:00:58;;;;;;;14.07;5.67;;;;;;;;;;4977498;28;20205;-72
2022/05/23 07:03:23;;;;;;;3.67;3.13;;;;;;;;;;4971603;28;20191;-72
2022/05/23 07:14:01;;;;;;;3.60;3.17;;;;;;;;;;4967808;28;20197;-74
2022/05/23 07:16:26;;;;;;;3.30;3.00;;;;;;;;;;4972176;28;20282;-74
2022/05/23 07:18:51;;;;;;;4.57;3.40;;;;;;;;;;4971300;28;20179;-74
2022/05/23 07:21:17;;;;;;;7.33;3.30;;;;;;;;;;4978322;28;20175;-74
2022/05/23 07:23:42;;;;;;;4.47;4.07;;;;;;;;;;4965682;28;20192;-74
2022/05/23 07:26:09;;;;;;;3.43;3.20;;;;;;;;;;4982305;28;20180;-74
2022/05/23 07:28:35;;;;;;;3.57;3.27;;;;;;;;;;4970602;28;20183;-74
2022/05/23 07:31:01;;;;;;;6.40;3.27;;;;;;;;;;4978908;28;20196;-74
2022/05/23 07:33:27;;;;;;;5.33;3.03;;;;;;;;;;4979227;28;20177;-73
2022/05/23 07:35:55;;;;;;;4.73;3.60;;;;;;;;;;4968936;28;20220;-74
2022/05/23 07:38:21;;;;;;;4.00;3.67;;;;;;;;;;4968774;28;20184;-73
2022/05/23 07:40:52;;;;;;;6.17;3.50;;;;;;;;;;4967520;28;20197;-74
2022/05/23 07:43:18;;;;;;;3.90;3.37;;;;;;;;;;4964135;28;20274;-74
2022/05/23 07:45:43;;;;;;;6.03;3.47;;;;;;;;;;4970974;28;20275;-74
2022/05/23 07:48:08;;;;;;;4.83;3.50;;;;;;;;;;4962044;28;20197;-73
2022/05/23 07:50:34;;;;;;;3.90;3.40;;;;;;;;;;4966207;28;20295;-73
2022/05/23 08:01:11;;;;;;;3.60;3.30;;;;;;;;;;4971116;28;20257;-73
2022/05/23 08:03:36;;;;;;;3.80;3.20;;;;;;;;;;4976277;28;20183;-74
2022/05/23 08:06:01;;;;;;;3.10;2.80;;;;;;;;;;4965189;28;20286;-73
2022/05/23 08:08:27;;;;;;;10.13;3.73;;;;;;;;;;4972041;28;20184;-73
2022/05/23 08:10:52;;;;;;;3.30;2.60;;;;;;;;;;4971204;28;20213;-74
2022/05/23 08:13:17;;;;;;;5.10;3.13;;;;;;;;;;4967778;28;20181;-74
2022/05/23 08:15:42;;;;;;;3.40;3.00;;;;;;;;;;4976630;28;20192;-74
2022/05/23 08:18:09;;;;;;;5.13;2.90;;;;;;;;;;4975656;28;20186;-73
2022/05/23 08:20:35;;;;;;;4.30;3.20;;;;;;;;;;4968917;28;20186;-74
2022/05/23 08:23:00;;;;;;;3.47;2.80;;;;;;;;;;4966609;28;20184;-73
2022/05/23 08:25:26;;;;;;;3.07;2.77;;;;;;;;;;4979300;28;20273;-74
2022/05/23 08:27:55;;;;;;;3.67;2.60;;;;;;;;;;4963538;28;20193;-73
2022/05/23 08:30:20;;;;;;;5.03;3.20;;;;;;;;;;4980146;28;20201;-74
2022/05/23 08:32:46;;;;;;;4.00;3.13;;;;;;;;;;4964905;28;20244;-73
2022/05/23 08:35:11;;;;;;;3.20;2.53;;;;;;;;;;4968927;28;20186;-73
2022/05/23 08:37:37;;;;;;;4.00;3.50;;;;;;;;;;4971540;28;20174;-73
2022/05/23 08:40:03;;;;;;;3.93;3.10;;;;;;;;;;4984257;28;20230;-73
2022/05/23 08:42:31;;;;;;;3.23;2.80;;;;;;;;;;4967646;28;20200;-75
2022/05/23 08:45:10;;;;;;;3.20;2.90;;;;;;;;;;4967781;28;20188;-73
2022/05/23 08:47:41;;;;;;;3.23;2.97;;;;;;;;;;4974206;28;20185;-73
2022/05/23 08:50:20;;;;;;;4.50;3.53;;;;;;;;;;4965568;28;20338;-73
2022/05/23 08:52:51;;;;;;;4.00;3.00;;;;;;;;;;4962974;28;20213;-73
2022/05/23 08:55:17;;;;;;;3.57;2.90;;;;;;;;;;4983048;28;20189;-73
2022/05/23 08:58:03;;;;;;;4.97;3.17;;;;;;;;;;4968667;28;20183;-73
2022/05/23 09:00:30;;;;;;;4.63;2.80;;;;;;;;;;4980893;28;20209;-73
2022/05/23 09:02:59;;;;;;;3.10;2.63;;;;;;;;;;4984537;28;20210;-74
2022/05/23 09:05:32;;;;;;;4.30;3.00;;;;;;;;;;4971466;28;20231;-73
2022/05/23 09:08:18;;;;;;;3.53;2.90;;;;;;;;;;4978996;28;20186;-73
2022/05/23 09:10:43;;;;;;;3.30;3.00;;;;;;;;;;4965677;28;20214;-73
2022/05/23 09:13:09;;;;;;;4.83;3.17;;;;;;;;;;4962121;28;20178;-73
2022/05/23 09:15:35;;;;;;;3.67;3.30;;;;;;;;;;4962179;28;20190;-73
2022/05/23 09:18:03;;;;;;;4.13;2.97;;;;;;;;;;4965149;28;20176;-73
2022/05/23 09:20:40;;;;;;;3.30;3.00;;;;;;;;;;4978902;28;20255;-73
2022/05/23 09:23:11;;;;;;;3.67;3.37;;;;;;;;;;4953006;28;20182;-74
2022/05/23 09:25:36;;;;;;;4.43;3.00;;;;;;;;;;4977504;28;20177;-73
2022/05/23 09:28:05;;;;;;;5.87;4.07;;;;;;;;;;4966389;28;20292;-79
2022/05/23 09:30:30;;;;;;;3.50;2.80;;;;;;;;;;4971088;28;20193;-72
2022/05/23 09:33:01;;;;;;;3.27;2.97;;;;;;;;;;4964047;28;20226;-71
2022/05/23 09:35:28;;;;;;;3.33;2.83;;;;;;;;;;4966337;28;20182;-72
2022/05/23 09:38:14;;;;;;;3.40;3.10;;;;;;;;;;4963032;28;20184;-71
2022/05/23 09:40:40;;;;;;;3.33;2.93;;;;;;;;;;4961442;28;20290;-72
2022/05/23 09:49:02;;;;;;;5.60;2.43;;;;;;;;;;4962760;28;20207;-71
2022/05/23 09:51:27;;;;;;;4.50;2.93;;;;;;;;;;4975241;28;20210;-71
2022/05/23 09:53:53;;;;;;;4.03;2.53;;;;;;;;;;4968500;28;20194;-72
2022/05/23 09:56:36;;;;;;;3.30;2.63;;;;;;;;;;4958977;28;20185;-71
2022/05/23 09:59:07;;;;;;;2.87;2.60;;;;;;;;;;4962718;28;20184;-71
2022/05/23 10:01:33;;;;;;;2.70;2.50;;;;;;;;;;4963923;28;20215;-71
2022/05/23 10:03:59;;;;;;;3.70;2.83;;;;;;;;;;4963998;28;20256;-71
2022/05/23 10:06:35;;;;;;;3.10;2.80;;;;;;;;;;4959220;28;20315;-72
2022/05/23 10:09:00;;;;;;;4.03;2.50;;;;;;;;;;4962163;28;20237;-71
2022/05/23 10:11:34;;;;;;;3.67;2.30;;;;;;;;;;4964815;28;20195;-71
2022/05/23 10:14:00;;;;;;;2.63;2.37;;;;;;;;;;4972895;28;20187;-72
2022/05/23 10:16:27;;;;;;;3.50;2.53;;;;;;;;;;4971994;28;20184;-71
2022/05/23 10:18:57;;;;;;;4.00;3.00;;;;;;;;;;4967900;28;20188;-72
2022/05/23 10:21:42;;;;;;;2.90;2.57;;;;;;;;;;4963467;28;20184;-71
2022/05/23 10:24:24;;;;;;;3.33;2.80;;;;;;;;;;4974787;28;20176;-72
2022/05/23 10:26:49;;;;;;;5.10;2.87;;;;;;;;;;4959131;28;20207;-71
2022/05/23 10:29:15;;;;;;;3.07;2.77;;;;;;;;;;4979144;28;20228;-71
2022/05/23 10:31:54;;;;;;;3.07;2.77;;;;;;;;;;4968523;28;20468;-71
2022/05/23 10:34:22;;;;;;;3.17;2.87;;;;;;;;;;4961261;28;20267;-72
2022/05/23 10:36:49;;;;;;;4.67;2.97;;;;;;;;;;4959442;28;20174;-71
2022/05/23 10:42:10;;;;;;;2.87;2.67;;;;;;;;;;4956234;28;20232;-72
2022/05/23 10:44:41;;;;;;;4.30;3.00;;;;;;;;;;4959611;28;20268;-71
2022/05/23 10:47:21;;;;;;;4.53;3.53;;;;;;;;;;4969529;28;20176;-72
2022/05/23 10:49:51;;;;;;;4.30;3.27;;;;;;;;;;4958687;28;20181;-73
2022/05/23 10:52:27;;;;;;;6.23;3.17;;;;;;;;;;4960197;28;20205;-74
2022/05/23 10:55:00;;;;;;;5.57;3.40;;;;;;;;;;4960645;28;20187;-73
2022/05/23 10:57:31;;;;;;;4.37;3.37;;;;;;;;;;4963046;28;20185;-73
2022/05/23 11:00:13;;;;;;;5.00;3.00;;;;;;;;;;4960206;28;20196;-73
2022/05/23 11:03:01;;;;;;;3.30;2.37;;;;;;;;;;4961709;28;20211;-73
2022/05/23 11:05:31;;;;;;;4.30;2.50;;;;;;;;;;4959032;28;20255;-73
2022/05/23 11:08:07;;;;;;;3.50;2.77;;;;;;;;;;4971023;28;20186;-73
2022/05/23 11:10:44;;;;;;;5.13;2.43;;;;;;;;;;4955587;28;20218;-73
2022/05/23 11:13:15;;;;;;;2.93;2.50;;;;;;;;;;4962802;28;20207;-73
2022/05/23 11:15:43;;;;;;;4.33;2.73;;;;;;;;;;4965609;28;20191;-73
2022/05/23 11:18:17;;;;;;;6.63;3.17;;;;;;;;;;4958402;28;20180;-73
2022/05/23 11:20:42;;;;;;;3.13;2.20;;;;;;;;;;4958900;28;20489;-73
2022/05/23 11:23:11;;;;;;;3.13;2.83;;;;;;;;;;4954462;28;20240;-73
2022/05/23 11:25:38;;;;;;;7.23;3.67;;;;;;;;;;4966775;28;20191;-73
2022/05/23 11:33:41;;;;;;;6.50;2.97;;;;;;;;;;4961077;28;20197;-72
2022/05/23 11:36:09;;;;;;;4.20;3.40;;;;;;;;;;4958210;28;20263;-73
2022/05/23 11:38:41;;;;;;;6.40;3.70;;;;;;;;;;4968708;28;20186;-72
2022/05/23 11:41:06;;;;;;;5.73;3.73;;;;;;;;;;4965731;28;20196;-72
2022/05/23 11:43:32;;;;;;;6.53;5.13;;;;;;;;;;4975061;28;20229;-72
2022/05/23 11:45:57;;;;;;;10.10;5.33;;;;;;;;;;4975604;28;20182;-72
2022/05/23 11:48:35;;;;;;;7.50;4.40;;;;;;;;;;4968950;28;20191;-72
2022/05/23 11:51:12;;;;;;;6.90;4.17;;;;;;;;;;4970916;28;20210;-73
2022/05/23 11:53:42;;;;;;;6.67;4.30;;;;;;;;;;4974755;28;20191;-73
2022/05/23 11:56:09;;;;;;;6.73;4.20;;;;;;;;;;4976833;28;20208;-72
2022/05/23 11:58:45;;;;;;;6.13;3.70;;;;;;;;;;4956562;28;20210;-72
2022/05/23 12:01:10;;;;;;;5.57;4.30;;;;;;;;;;4972708;28;20206;-73
2022/05/23 12:03:47;;;;;;;6.63;5.77;;;;;;;;;;4962152;28;20183;-73
2022/05/23 12:06:14;;;;;;;6.60;4.73;;;;;;;;;;4965655;28;20234;-73
2022/05/23 12:08:40;;;;;;;5.10;4.60;;;;;;;;;;4969193;28;20199;-72
2022/05/23 12:11:21;;;;;;;5.37;4.30;;;;;;;;;;4963474;28;20211;-72
2022/05/23 12:13:49;;;;;;;5.03;4.40;;;;;;;;;;4962519;28;20190;-73
2022/05/23 12:16:36;;;;;;;6.87;4.53;;;;;;;;;;4968038;28;20183;-73
2022/05/23 12:19:11;;;;;;;4.00;3.63;;;;;;;;;;4970915;28;20172;-73
2022/05/23 12:21:36;;;;;;;5.50;3.90;;;;;;;;;;4972372;28;20206;-72
2022/05/23 12:24:20;;;;;;;4.50;3.80;;;;;;;;;;4971932;28;20263;-73
2022/05/23 12:26:52;;;;;;;6.37;4.17;;;;;;;;;;4964063;28;20258;-72
2022/05/23 12:29:36;;;;;;;4.43;4.03;;;;;;;;;;4956546;28;20185;-73
2022/05/23 12:32:05;;;;;;;5.67;4.00;;;;;;;;;;4969394;28;20211;-73
2022/05/23 12:34:31;;;;;;;3.73;3.40;;;;;;;;;;4962151;28;20188;-73
2022/05/23 12:36:57;;;;;;;4.90;3.60;;;;;;;;;;4964308;28;20176;-73
2022/05/23 12:39:31;;;;;;;5.57;3.70;;;;;;;;;;4965070;28;20187;-73
2022/05/23 12:42:03;;;;;;;4.03;3.63;;;;;;;;;;4971223;28;20194;-73
2022/05/23 12:44:44;;;;;;;7.07;3.97;;;;;;;;;;4973694;28;20210;-73
2022/05/23 12:47:28;;;;;;;6.47;3.47;;;;;;;;;;4973301;28;20188;-73
2022/05/23 12:49:56;;;;;;;4.10;3.47;;;;;;;;;;4968414;28;20183;-74
2022/05/23 12:52:40;;;;;;;6.27;3.60;;;;;;;;;;4973181;28;20294;-73
2022/05/23 12:55:24;;;;;;;4.03;3.23;;;;;;;;;;4961372;28;20193;-73
2022/05/23 12:57:52;;;;;;;4.23;3.83;;;;;;;;;;4963187;28;20265;-73
2022/05/23 13:00:19;;;;;;;6.83;3.30;;;;;;;;;;4967586;28;20236;-73
2022/05/23 13:02:56;;;;;;;5.20;3.33;;;;;;;;;;4981445;28;20183;-73
2022/05/23 13:05:24;;;;;;;4.50;4.10;;;;;;;;;;4985430;28;20223;-73
2022/05/23 13:07:56;;;;;;;4.97;3.10;;;;;;;;;;4980625;28;20188;-73
2022/05/23 13:10:44;;;;;;;4.50;3.17;;;;;;;;;;4964760;28;20219;-73
2022/05/23 13:13:12;;;;;;;5.87;3.17;;;;;;;;;;4962197;28;20227;-73
2022/05/23 13:15:37;;;;;;;4.83;3.13;;;;;;;;;;4961642;28;20201;-73
2022/05/23 13:23:35;;;;;;;5.47;2.90;;;;;;;;;;4960315;28;20192;-73
2022/05/23 13:26:06;;;;;;;5.43;3.17;;;;;;;;;;4959543;28;20179;-73
2022/05/23 13:28:31;;;;;;;6.57;2.93;;;;;;;;;;4962971;28;20202;-72
2022/05/23 13:30:56;;;;;;;4.57;2.67;;;;;;;;;;4968214;28;20203;-72
2022/05/23 13:33:21;;;;;;;3.47;3.17;;;;;;;;;;4954815;28;20185;-73
2022/05/23 13:35:52;;;;;;;5.00;2.70;;;;;;;;;;4963873;28;20194;-73
2022/05/23 13:38:22;;;;;;;6.63;3.13;;;;;;;;;;4972702;28;20177;-72
2022/05/23 13:40:49;;;;;;;4.97;2.50;;;;;;;;;;4961892;28;20197;-73
2022/05/23 13:43:16;;;;;;;4.22;3.17;;;;;;;;;;4966509;28;20200;-73
2022/05/23 13:45:42;;;;;;;5.72;2.72;;;;;;;;;;4966545;28;20326;-72
2022/05/23 13:48:22;;;;;;;2.88;2.40;;;;;;;;;;4973924;28;20216;-72
2022/05/23 13:50:52;;;;;;;3.80;2.65;;;;;;;;;;4965910;28;20208;-73
2022/05/23 13:53:25;;;;;;;2.95;2.35;;;;;;;;;;4961497;28;20189;-73
2022/05/23 13:55:50;;;;;;;5.25;2.78;;;;;;;;;;4963633;28;20201;-72
2022/05/23 13:58:16;;;;;;;4.63;2.63;;;;;;;;;;4970740;28;20198;-72
2022/05/23 14:00:47;;;;;;;4.40;2.88;;;;;;;;;;4963718;28;20237;-72
2022/05/23 14:03:18;;;;;;;5.85;3.00;;;;;;;;;;4966680;28;20228;-72
2022/05/23 14:05:45;;;;;;;6.05;3.10;;;;;;;;;;4965095;28;20299;-72
2022/05/23 14:08:13;;;;;;;5.82;2.65;;;;;;;;;;4972605;28;20177;-72
2022/05/23 14:10:42;;;;;;;4.78;3.05;;;;;;;;;;4968744;28;20280;-72
2022/05/23 14:13:08;;;;;;;5.35;2.53;;;;;;;;;;4962096;28;20284;-72
2022/05/23 14:15:33;;;;;;;3.72;2.50;;;;;;;;;;4967664;28;20262;-72
2022/05/23 14:17:59;;;;;;;5.53;2.83;;;;;;;;;;4968027;28;20181;-72
2022/05/23 14:20:24;;;;;;;6.32;2.90;;;;;;;;;;4968522;28;20193;-72
2022/05/23 14:23:02;;;;;;;5.93;2.60;;;;;;;;;;4967113;28;20185;-72
2022/05/23 14:25:30;;;;;;;7.43;3.38;;;;;;;;;;4983948;28;20196;-72
2022/05/23 14:28:03;;;;;;;4.55;2.60;;;;;;;;;;4969676;28;20239;-72
2022/05/23 14:30:30;;;;;;;8.35;3.17;;;;;;;;;;4967351;28;20212;-72
2022/05/23 14:33:00;;;;;;;3.90;2.80;;;;;;;;;;4984701;28;20177;-72
2022/05/23 14:35:31;;;;;;;4.70;2.70;;;;;;;;;;4968711;28;20185;-72
2022/05/23 14:37:56;;;;;;;7.18;2.40;;;;;;;;;;4981324;28;20211;-72
2022/05/23 14:40:41;;;;;;;5.90;2.33;;;;;;;;;;4986752;28;20200;-72
2022/05/23 14:43:08;;;;;;;7.43;3.13;;;;;;;;;;4959698;28;20177;-72
2022/05/23 14:45:33;;;;;;;3.92;2.70;;;;;;;;;;4982142;28;20256;-72
2022/05/23 14:48:05;;;;;;;4.13;2.28;;;;;;;;;;4967109;28;20185;-72
2022/05/23 14:50:41;;;;;;;3.40;2.28;;;;;;;;;;4975669;28;20211;-72
2022/05/23 14:55:52;;;;;;;2.70;2.42;;;;;;;;;;4968791;28;20389;-72
2022/05/23 15:01:05;;;;;;;7.32;2.25;;;;;;;;;;4964240;28;20216;-72
2022/05/23 15:03:42;;;;;;;4.55;2.47;;;;;;;;;;4963360;28;20184;-72
2022/05/23 15:06:07;;;;;;;2.90;2.20;;;;;;;;;;4959424;28;20235;-72
2022/05/23 15:08:33;;;;;;;3.90;3.40;;;;;;;;;;4958701;28;20185;-72
2022/05/23 15:10:58;;;;;;;3.53;2.42;;;;;;;;;;4972607;28;20225;-72
2022/05/23 15:13:24;;;;;;;5.57;2.30;;;;;;;;;;4973789;28;20194;-72
2022/05/23 15:15:49;;;;;;;8.18;2.60;;;;;;;;;;4963227;28;20189;-72
2022/05/23 15:18:15;;;;;;;5.78;2.47;;;;;;;;;;4968557;28;20576;-72
2022/05/23 15:20:40;;;;;;;3.55;2.33;;;;;;;;;;4965257;28;20181;-72
2022/05/23 15:23:06;;;;;;;3.75;2.30;;;;;;;;;;4962078;28;20181;-72
2022/05/23 15:25:32;;;;;;;3.47;1.83;;;;;;;;;;4969248;28;20529;-72
2022/05/23 15:27:58;;;;;;;2.80;1.98;;;;;;;;;;4979847;28;20297;-72
2022/05/23 15:30:28;;;;;;;2.95;2.10;;;;;;;;;;4966710;28;20209;-72
2022/05/23 15:32:53;;;;;;;3.67;2.15;;;;;;;;;;4964926;28;20211;-71
2022/05/23 15:35:22;;;;;;;5.00;2.38;;;;;;;;;;4969026;28;20208;-71
2022/05/23 15:37:48;;;;;;;4.32;2.95;;;;;;;;;;4977114;28;20182;-72
2022/05/23 15:40:14;;;;;;;5.32;2.13;;;;;;;;;;4975571;28;20177;-72
2022/05/23 15:42:40;;;;;;;3.28;2.83;;;;;;;;;;4961455;28;20297;-71
2022/05/23 15:45:17;;;;;;;3.58;2.50;;;;;;;;;;4966252;28;20185;-72
2022/05/23 15:47:42;;;;;;;6.20;3.03;;;;;;;;;;4965342;28;20184;-72
2022/05/23 15:50:08;;;;;;;4.00;2.78;;;;;;;;;;4960733;28;20173;-71
2022/05/23 15:52:34;;;;;;;4.45;2.35;;;;;;;;;;4965726;28;20197;-72
2022/05/23 15:54:59;;;;;;;3.58;2.50;;;;;;;;;;4963126;28;20184;-72